createdAt,value
2019-01-22T00:00:15.745Z,998.92
2019-01-22T00:01:15.768Z,998.91
2019-01-22T00:02:15.787Z,998.91
2019-01-22T00:03:15.807Z,998.90
2019-01-22T00:04:15.829Z,998.90
2019-01-22T00:05:15.848Z,998.89
2019-01-22T00:06:15.871Z,998.88
2019-01-22T00:07:15.891Z,998.84
2019-01-22T00:08:15.913Z,998.91
2019-01-22T00:09:15.932Z,998.87
2019-01-22T00:10:15.954Z,998.83
2019-01-22T00:11:15.972Z,998.78
2019-01-22T00:12:15.994Z,998.80
2019-01-22T00:13:16.016Z,998.78
2019-01-22T00:14:16.036Z,998.79
2019-01-22T00:15:16.060Z,998.79
2019-01-22T00:16:16.077Z,998.77
2019-01-22T00:17:16.102Z,998.73
2019-01-22T00:18:16.119Z,998.73
2019-01-22T00:19:16.142Z,998.73
2019-01-22T00:20:16.161Z,998.71
2019-01-22T00:21:16.184Z,998.71
2019-01-22T00:22:16.203Z,998.69
2019-01-22T00:23:16.227Z,998.71
2019-01-22T00:24:16.246Z,998.67
2019-01-22T00:25:16.267Z,998.63
2019-01-22T00:26:16.286Z,998.64
2019-01-22T00:27:16.307Z,998.60
2019-01-22T00:28:16.330Z,998.60
2019-01-22T00:29:16.400Z,998.55
2019-01-22T00:30:16.371Z,998.57
2019-01-22T00:31:16.391Z,998.49
2019-01-22T00:32:16.411Z,998.48
2019-01-22T00:33:16.433Z,998.51
2019-01-22T00:34:16.454Z,998.50
2019-01-22T00:35:16.477Z,998.47
2019-01-22T00:36:16.498Z,998.38
2019-01-22T00:37:16.517Z,998.36
2019-01-22T00:38:16.541Z,998.38
2019-01-22T00:39:16.559Z,998.36
2019-01-22T00:40:16.583Z,998.37
2019-01-22T00:41:16.603Z,998.36
2019-01-22T00:42:16.624Z,998.35
2019-01-22T00:43:16.644Z,998.33
2019-01-22T00:44:16.668Z,998.30
2019-01-22T00:45:16.687Z,998.31
2019-01-22T00:46:16.709Z,998.30
2019-01-22T00:47:16.732Z,998.30
2019-01-22T00:48:16.750Z,998.29
2019-01-22T00:49:16.774Z,998.30
2019-01-22T00:50:16.794Z,998.28
2019-01-22T00:51:16.814Z,998.31
2019-01-22T00:52:16.836Z,998.21
2019-01-22T00:53:16.859Z,998.22
2019-01-22T00:54:16.878Z,998.24
2019-01-22T00:55:16.900Z,998.26
2019-01-22T00:56:16.922Z,998.29
2019-01-22T00:57:16.943Z,998.26
2019-01-22T00:58:16.966Z,998.21
2019-01-22T00:59:16.986Z,998.21
2019-01-22T01:00:17.007Z,998.20
2019-01-22T01:01:17.029Z,998.18
2019-01-22T01:02:17.052Z,998.21
2019-01-22T01:03:17.072Z,998.18
2019-01-22T01:04:17.093Z,998.20
2019-01-22T01:05:17.115Z,998.17
2019-01-22T01:06:17.139Z,998.18
2019-01-22T01:07:17.158Z,998.16
2019-01-22T01:08:17.180Z,998.19
2019-01-22T01:09:17.205Z,998.21
2019-01-22T01:10:17.223Z,998.13
2019-01-22T01:11:17.245Z,998.23
2019-01-22T01:12:17.267Z,998.21
2019-01-22T01:13:17.288Z,998.23
2019-01-22T01:14:17.309Z,998.16
2019-01-22T01:15:17.331Z,998.17
2019-01-22T01:16:17.352Z,998.20
2019-01-22T01:17:17.376Z,998.12
2019-01-22T01:18:17.399Z,998.13
2019-01-22T01:19:17.417Z,998.15
2019-01-22T01:20:17.440Z,998.15
2019-01-22T01:21:17.506Z,998.09
2019-01-22T01:22:17.743Z,998.13
2019-01-22T01:23:17.506Z,998.14
2019-01-22T01:24:17.527Z,998.09
2019-01-22T01:25:17.549Z,998.12
2019-01-22T01:26:17.574Z,998.08
2019-01-22T01:27:17.592Z,998.13
2019-01-22T01:28:17.614Z,998.13
2019-01-22T01:29:17.637Z,998.13
2019-01-22T01:30:17.659Z,998.07
2019-01-22T01:31:17.680Z,998.08
2019-01-22T01:32:17.705Z,998.09
2019-01-22T01:33:17.724Z,998.06
2019-01-22T01:34:17.747Z,998.07
2019-01-22T01:35:17.768Z,998.11
2019-01-22T01:36:17.795Z,998.07
2019-01-22T01:37:17.811Z,998.09
2019-01-22T01:38:17.834Z,998.04
2019-01-22T01:39:17.854Z,998.07
2019-01-22T01:40:17.877Z,998.04
2019-01-22T01:41:17.898Z,997.99
2019-01-22T01:42:17.921Z,998.00
2019-01-22T01:43:17.943Z,997.98
2019-01-22T01:44:17.970Z,997.96
2019-01-22T01:45:17.986Z,997.98
2019-01-22T01:46:18.008Z,997.94
2019-01-22T01:47:18.029Z,997.96
2019-01-22T01:48:18.051Z,997.91
2019-01-22T01:49:18.072Z,997.90
2019-01-22T01:50:18.094Z,997.93
2019-01-22T01:51:18.117Z,997.89
2019-01-22T01:52:18.139Z,997.89
2019-01-22T01:53:23.831Z,997.94
2019-01-22T01:54:18.184Z,997.86
2019-01-22T01:55:18.204Z,997.85
2019-01-22T01:56:18.225Z,997.83
2019-01-22T01:57:18.247Z,997.85
2019-01-22T01:58:18.273Z,997.86
2019-01-22T01:59:18.293Z,997.86
2019-01-22T02:00:18.313Z,997.83
2019-01-22T02:01:18.336Z,997.81
2019-01-22T02:02:18.357Z,997.83
2019-01-22T02:03:18.382Z,997.80
2019-01-22T02:04:18.402Z,997.75
2019-01-22T02:05:18.426Z,997.73
2019-01-22T02:06:18.446Z,997.73
2019-01-22T02:07:18.467Z,997.70
2019-01-22T02:08:18.490Z,997.64
2019-01-22T02:09:18.512Z,997.64
2019-01-22T02:10:18.534Z,997.66
2019-01-22T02:11:18.556Z,997.57
2019-01-22T02:12:18.577Z,997.58
2019-01-22T02:13:18.600Z,997.55
2019-01-22T02:14:18.622Z,997.55
2019-01-22T02:15:18.643Z,997.53
2019-01-22T02:16:18.667Z,997.51
2019-01-22T02:17:18.688Z,997.48
2019-01-22T02:18:18.711Z,997.44
2019-01-22T02:19:18.731Z,997.42
2019-01-22T02:20:18.754Z,997.42
2019-01-22T02:21:18.778Z,997.39
2019-01-22T02:22:18.799Z,997.38
2019-01-22T02:23:18.822Z,997.36
2019-01-22T02:24:18.842Z,997.32
2019-01-22T02:25:18.867Z,997.31
2019-01-22T02:26:18.888Z,997.27
2019-01-22T02:27:18.909Z,997.25
2019-01-22T02:28:18.931Z,997.24
2019-01-22T02:29:18.954Z,997.27
2019-01-22T02:30:18.976Z,997.22
2019-01-22T02:31:18.999Z,997.23
2019-01-22T02:32:19.022Z,997.22
2019-01-22T02:33:19.043Z,997.20
2019-01-22T02:34:19.066Z,997.15
2019-01-22T02:35:19.087Z,997.12
2019-01-22T02:36:19.109Z,997.14
2019-01-22T02:37:19.131Z,997.10
2019-01-22T02:38:19.155Z,997.14
2019-01-22T02:39:19.177Z,997.12
2019-01-22T02:40:19.201Z,997.10
2019-01-22T02:41:19.221Z,997.15
2019-01-22T02:42:19.244Z,997.14
2019-01-22T02:43:19.265Z,997.01
2019-01-22T02:44:19.288Z,997.08
2019-01-22T02:45:19.312Z,997.01
2019-01-22T02:46:19.333Z,997.04
2019-01-22T02:47:19.355Z,996.99
2019-01-22T02:48:19.380Z,997.01
2019-01-22T02:49:19.400Z,996.96
2019-01-22T02:50:19.423Z,996.96
2019-01-22T02:51:19.443Z,996.95
2019-01-22T02:52:19.466Z,996.96
2019-01-22T02:53:19.491Z,996.94
2019-01-22T02:54:19.515Z,996.92
2019-01-22T02:55:19.534Z,996.83
2019-01-22T02:56:19.557Z,996.89
2019-01-22T02:57:19.578Z,996.85
2019-01-22T02:58:19.600Z,996.80
2019-01-22T02:59:19.623Z,996.79
2019-01-22T03:00:19.645Z,996.76
2019-01-22T03:01:19.668Z,996.68
2019-01-22T03:02:19.691Z,996.67
2019-01-22T03:03:19.712Z,996.68
2019-01-22T03:04:19.734Z,996.70
2019-01-22T03:05:19.758Z,996.64
2019-01-22T03:06:32.516Z,996.66
2019-01-22T03:07:19.804Z,996.63
2019-01-22T03:08:19.825Z,996.61
2019-01-22T03:09:19.846Z,996.56
2019-01-22T03:10:19.869Z,996.62
2019-01-22T03:11:19.893Z,996.58
2019-01-22T03:12:19.914Z,996.55
2019-01-22T03:13:19.939Z,996.60
2019-01-22T03:14:19.959Z,996.56
2019-01-22T03:15:19.981Z,996.54
2019-01-22T03:16:20.004Z,996.62
2019-01-22T03:17:20.028Z,996.49
2019-01-22T03:18:20.049Z,996.51
2019-01-22T03:19:20.071Z,996.47
2019-01-22T03:20:20.102Z,996.45
2019-01-22T03:21:20.116Z,996.43
2019-01-22T03:22:20.139Z,996.41
2019-01-22T03:23:20.163Z,996.35
2019-01-22T03:24:20.183Z,996.37
2019-01-22T03:25:20.206Z,996.31
2019-01-22T03:26:20.229Z,996.28
2019-01-22T03:27:20.254Z,996.27
2019-01-22T03:28:20.274Z,996.23
2019-01-22T03:29:20.299Z,996.25
2019-01-22T03:30:20.321Z,996.19
2019-01-22T03:31:20.343Z,996.18
2019-01-22T03:32:20.367Z,996.17
2019-01-22T03:33:20.414Z,996.02
2019-01-22T03:34:20.410Z,996.08
2019-01-22T03:35:20.432Z,996.11
2019-01-22T03:36:20.455Z,996.05
2019-01-22T03:37:20.477Z,996.07
2019-01-22T03:38:20.502Z,996.08
2019-01-22T03:39:20.524Z,996.02
2019-01-22T03:40:20.544Z,996.01
2019-01-22T03:41:20.567Z,996.03
2019-01-22T03:42:20.591Z,996.02
2019-01-22T03:43:20.612Z,996.05
2019-01-22T03:44:20.636Z,996.00
2019-01-22T03:45:20.657Z,995.99
2019-01-22T03:46:20.681Z,995.97
2019-01-22T03:47:20.703Z,995.96
2019-01-22T03:48:20.725Z,995.92
2019-01-22T03:49:20.751Z,995.98
2019-01-22T03:50:20.771Z,995.97
2019-01-22T03:51:20.792Z,995.93
2019-01-22T03:52:20.817Z,995.91
2019-01-22T03:53:20.839Z,995.93
2019-01-22T03:54:20.863Z,995.87
2019-01-22T03:55:20.886Z,995.90
2019-01-22T03:56:20.905Z,995.86
2019-01-22T03:57:20.930Z,995.83
2019-01-22T03:58:20.952Z,995.80
2019-01-22T03:59:20.972Z,995.81
2019-01-22T04:00:20.996Z,995.82
2019-01-22T04:01:21.021Z,995.87
2019-01-22T04:02:21.042Z,995.79
2019-01-22T04:03:21.066Z,995.80
2019-01-22T04:04:21.088Z,995.76
2019-01-22T04:05:21.110Z,995.74
2019-01-22T04:06:21.151Z,995.79
2019-01-22T04:07:21.154Z,995.76
2019-01-22T04:08:21.176Z,995.73
2019-01-22T04:09:21.202Z,995.72
2019-01-22T04:10:21.223Z,995.74
2019-01-22T04:11:21.244Z,995.75
2019-01-22T04:12:21.269Z,995.66
2019-01-22T04:13:21.291Z,995.68
2019-01-22T04:14:21.313Z,995.70
2019-01-22T04:15:21.335Z,995.60
2019-01-22T04:16:21.358Z,995.62
2019-01-22T04:17:21.381Z,995.60
2019-01-22T04:18:21.407Z,995.56
2019-01-22T04:19:21.436Z,995.59
2019-01-22T04:20:21.448Z,995.59
2019-01-22T04:21:21.470Z,995.54
2019-01-22T04:22:21.496Z,995.52
2019-01-22T04:23:21.515Z,995.47
2019-01-22T04:24:21.538Z,995.43
2019-01-22T04:25:21.561Z,995.39
2019-01-22T04:26:21.584Z,995.36
2019-01-22T04:27:21.605Z,995.40
2019-01-22T04:28:21.628Z,995.36
2019-01-22T04:29:21.659Z,995.39
2019-01-22T04:30:21.673Z,995.38
2019-01-22T04:31:21.698Z,995.38
2019-01-22T04:32:21.718Z,995.37
2019-01-22T04:33:21.743Z,995.37
2019-01-22T04:34:21.765Z,995.36
2019-01-22T04:35:21.808Z,995.39
2019-01-22T04:36:21.813Z,995.37
2019-01-22T04:37:21.832Z,995.32
2019-01-22T04:38:21.854Z,995.30
2019-01-22T04:39:21.876Z,995.37
2019-01-22T04:40:21.906Z,995.32
2019-01-22T04:41:21.923Z,995.34
2019-01-22T04:42:21.945Z,995.30
2019-01-22T04:43:21.967Z,995.31
2019-01-22T04:44:21.990Z,995.27
2019-01-22T04:45:22.015Z,995.31
2019-01-22T04:46:22.037Z,995.34
2019-01-22T04:47:22.059Z,995.27
2019-01-22T04:48:22.082Z,995.27
2019-01-22T04:49:22.105Z,995.25
2019-01-22T04:50:22.125Z,995.24
2019-01-22T04:51:22.148Z,995.30
2019-01-22T04:52:22.171Z,995.26
2019-01-22T04:53:22.196Z,995.23
2019-01-22T04:54:22.218Z,995.22
2019-01-22T04:55:22.239Z,995.20
2019-01-22T04:56:22.261Z,995.22
2019-01-22T04:57:22.285Z,995.26
2019-01-22T04:58:22.307Z,995.21
2019-01-22T04:59:22.329Z,995.22
2019-01-22T05:00:22.356Z,995.30
2019-01-22T05:01:22.375Z,995.30
2019-01-22T05:02:22.406Z,995.29
2019-01-22T05:03:22.420Z,995.22
2019-01-22T05:04:22.444Z,995.24
2019-01-22T05:05:22.467Z,995.26
2019-01-22T05:06:22.490Z,995.23
2019-01-22T05:07:22.513Z,995.22
2019-01-22T05:08:22.535Z,995.20
2019-01-22T05:09:22.557Z,995.16
2019-01-22T05:10:22.581Z,995.17
2019-01-22T05:11:22.602Z,995.16
2019-01-22T05:12:22.627Z,995.19
2019-01-22T05:13:22.649Z,995.18
2019-01-22T05:14:22.671Z,995.20
2019-01-22T05:15:22.696Z,995.13
2019-01-22T05:16:22.719Z,995.18
2019-01-22T05:17:22.742Z,995.11
2019-01-22T05:18:22.763Z,995.18
2019-01-22T05:19:22.784Z,995.15
2019-01-22T05:20:22.808Z,995.11
2019-01-22T05:21:22.843Z,995.14
2019-01-22T05:22:22.855Z,995.09
2019-01-22T05:23:22.876Z,995.13
2019-01-22T05:24:22.899Z,995.05
2019-01-22T05:25:22.923Z,995.05
2019-01-22T05:26:22.946Z,995.04
2019-01-22T05:27:22.970Z,995.03
2019-01-22T05:28:22.993Z,995.02
2019-01-22T05:29:23.011Z,995.03
2019-01-22T05:30:23.036Z,994.99
2019-01-22T05:31:23.058Z,994.99
2019-01-22T05:32:23.082Z,994.91
2019-01-22T05:33:24.037Z,994.95
2019-01-22T05:34:23.127Z,994.90
2019-01-22T05:35:23.149Z,994.92
2019-01-22T05:36:23.173Z,994.93
2019-01-22T05:37:23.199Z,994.87
2019-01-22T05:38:23.217Z,994.85
2019-01-22T05:39:23.240Z,994.91
2019-01-22T05:40:23.264Z,994.87
2019-01-22T05:41:23.286Z,994.85
2019-01-22T05:42:23.308Z,994.78
2019-01-22T05:43:23.331Z,994.81
2019-01-22T05:44:23.357Z,994.79
2019-01-22T05:45:23.381Z,994.79
2019-01-22T05:46:23.411Z,994.78
2019-01-22T05:47:23.421Z,994.79
2019-01-22T05:48:23.444Z,994.75
2019-01-22T05:49:23.469Z,994.73
2019-01-22T05:50:23.490Z,994.78
2019-01-22T05:51:23.513Z,994.76
2019-01-22T05:52:23.536Z,994.77
2019-01-22T05:53:23.558Z,994.74
2019-01-22T05:54:25.349Z,994.76
2019-01-22T05:55:23.604Z,994.76
2019-01-22T05:56:23.627Z,994.74
2019-01-22T05:57:23.648Z,994.73
2019-01-22T05:58:23.672Z,994.74
2019-01-22T05:59:23.694Z,994.76
2019-01-22T06:00:23.719Z,994.72
2019-01-22T06:01:23.738Z,994.75
2019-01-22T06:02:23.762Z,994.71
2019-01-22T06:03:23.784Z,994.62
2019-01-22T06:04:23.808Z,994.66
2019-01-22T06:05:23.832Z,994.64
2019-01-22T06:06:23.854Z,994.64
2019-01-22T06:07:23.883Z,994.61
2019-01-22T06:08:23.904Z,994.61
2019-01-22T06:09:23.924Z,994.56
2019-01-22T06:10:23.944Z,994.61
2019-01-22T06:11:23.974Z,994.60
2019-01-22T06:12:23.989Z,994.65
2019-01-22T06:13:24.012Z,994.63
2019-01-22T06:14:24.036Z,994.65
2019-01-22T06:15:24.058Z,994.64
2019-01-22T06:16:24.082Z,994.59
2019-01-22T06:17:24.105Z,994.60
2019-01-22T06:18:24.132Z,994.58
2019-01-22T06:19:24.150Z,994.56
2019-01-22T06:20:24.173Z,994.53
2019-01-22T06:21:24.198Z,994.55
2019-01-22T06:22:24.227Z,994.51
2019-01-22T06:23:24.243Z,994.53
2019-01-22T06:24:24.265Z,994.50
2019-01-22T06:25:24.293Z,994.48
2019-01-22T06:26:24.310Z,994.48
2019-01-22T06:27:24.505Z,994.48
2019-01-22T06:28:24.355Z,994.40
2019-01-22T06:29:24.378Z,994.40
2019-01-22T06:30:24.444Z,994.41
2019-01-22T06:31:24.424Z,994.38
2019-01-22T06:32:24.448Z,994.33
2019-01-22T06:33:24.471Z,994.33
2019-01-22T06:34:24.494Z,994.26
2019-01-22T06:35:24.517Z,994.31
2019-01-22T06:36:24.539Z,994.29
2019-01-22T06:37:24.574Z,994.30
2019-01-22T06:38:24.588Z,994.27
2019-01-22T06:39:24.610Z,994.24
2019-01-22T06:40:24.631Z,994.24
2019-01-22T06:41:24.656Z,994.28
2019-01-22T06:42:24.676Z,994.27
2019-01-22T06:43:24.701Z,994.21
2019-01-22T06:44:24.724Z,994.23
2019-01-22T06:45:24.748Z,994.22
2019-01-22T06:46:24.771Z,994.18
2019-01-22T06:47:24.795Z,994.21
2019-01-22T06:48:24.816Z,994.24
2019-01-22T06:49:24.839Z,994.19
2019-01-22T06:50:24.866Z,994.19
2019-01-22T06:51:24.883Z,994.19
2019-01-22T06:52:24.907Z,994.13
2019-01-22T06:53:24.931Z,994.15
2019-01-22T06:54:24.962Z,994.13
2019-01-22T06:55:24.976Z,994.13
2019-01-22T06:56:24.999Z,994.14
2019-01-22T06:57:25.022Z,994.09
2019-01-22T06:58:25.047Z,994.10
2019-01-22T06:59:25.067Z,994.05
2019-01-22T07:00:25.090Z,994.11
2019-01-22T07:01:25.163Z,994.08
2019-01-22T07:02:25.137Z,994.08
2019-01-22T07:03:25.160Z,994.10
2019-01-22T07:04:25.192Z,994.05
2019-01-22T07:05:25.207Z,994.07
2019-01-22T07:06:25.229Z,994.06
2019-01-22T07:07:25.251Z,993.98
2019-01-22T07:08:25.275Z,994.02
2019-01-22T07:09:25.322Z,993.99
2019-01-22T07:10:25.322Z,994.01
2019-01-22T07:11:25.344Z,993.99
2019-01-22T07:12:25.373Z,993.96
2019-01-22T07:13:25.394Z,994.01
2019-01-22T07:14:25.416Z,993.95
2019-01-22T07:15:25.449Z,993.92
2019-01-22T07:16:25.460Z,993.96
2019-01-22T07:17:25.481Z,993.83
2019-01-22T07:18:25.505Z,993.91
2019-01-22T07:19:25.527Z,993.89
2019-01-22T07:20:25.550Z,993.95
2019-01-22T07:21:26.586Z,993.93
2019-01-22T07:22:25.598Z,993.94
2019-01-22T07:23:25.620Z,993.92
2019-01-22T07:24:25.642Z,993.86
2019-01-22T07:25:25.665Z,993.91
2019-01-22T07:26:25.690Z,993.81
2019-01-22T07:27:25.712Z,993.88
2019-01-22T07:28:25.736Z,993.86
2019-01-22T07:29:25.758Z,993.85
2019-01-22T07:30:25.781Z,993.85
2019-01-22T07:31:25.805Z,993.82
2019-01-22T07:32:25.827Z,993.79
2019-01-22T07:33:25.852Z,993.78
2019-01-22T07:34:25.874Z,993.79
2019-01-22T07:35:25.898Z,993.78
2019-01-22T07:36:25.920Z,993.74
2019-01-22T07:37:25.943Z,993.77
2019-01-22T07:38:25.967Z,993.71
2019-01-22T07:39:25.989Z,993.74
2019-01-22T07:40:26.012Z,993.74
2019-01-22T07:41:26.038Z,993.77
2019-01-22T07:42:26.059Z,993.72
2019-01-22T07:43:26.082Z,993.75
2019-01-22T07:44:26.105Z,993.71
2019-01-22T07:45:26.130Z,993.71
2019-01-22T07:46:26.153Z,993.72
2019-01-22T07:47:26.174Z,993.75
2019-01-22T07:48:26.198Z,993.78
2019-01-22T07:49:26.222Z,993.78
2019-01-22T07:50:26.246Z,993.75
2019-01-22T07:51:26.268Z,993.79
2019-01-22T07:52:26.291Z,993.75
2019-01-22T07:53:26.315Z,993.72
2019-01-22T07:54:26.341Z,993.76
2019-01-22T07:55:26.364Z,993.77
2019-01-22T07:56:26.385Z,993.70
2019-01-22T07:57:26.408Z,993.75
2019-01-22T07:58:26.436Z,993.72
2019-01-22T07:59:26.455Z,993.71
2019-01-22T08:00:26.479Z,993.70
2019-01-22T08:01:26.501Z,993.69
2019-01-22T08:02:26.525Z,993.69
2019-01-22T08:03:26.547Z,993.69
2019-01-22T08:04:26.573Z,993.68
2019-01-22T08:05:26.594Z,993.72
2019-01-22T08:06:26.619Z,993.69
2019-01-22T08:07:26.641Z,993.67
2019-01-22T08:08:26.665Z,993.67
2019-01-22T08:09:26.688Z,993.69
2019-01-22T08:10:26.712Z,993.64
2019-01-22T08:11:26.735Z,993.66
2019-01-22T08:12:26.764Z,993.68
2019-01-22T08:13:26.787Z,993.63
2019-01-22T08:14:26.807Z,993.61
2019-01-22T08:15:26.830Z,993.59
2019-01-22T08:16:26.853Z,993.59
2019-01-22T08:17:26.881Z,993.57
2019-01-22T08:18:26.903Z,993.55
2019-01-22T08:19:26.923Z,993.57
2019-01-22T08:20:26.951Z,993.48
2019-01-22T08:21:26.969Z,993.50
2019-01-22T08:22:26.996Z,993.48
2019-01-22T08:23:27.016Z,993.45
2019-01-22T08:24:27.039Z,993.45
2019-01-22T08:25:27.063Z,993.47
2019-01-22T08:26:27.090Z,993.43
2019-01-22T08:27:29.672Z,993.42
2019-01-22T08:28:27.135Z,993.42
2019-01-22T08:29:27.157Z,993.38
2019-01-22T08:30:27.182Z,993.38
2019-01-22T08:31:27.204Z,993.36
2019-01-22T08:32:27.231Z,993.36
2019-01-22T08:33:27.255Z,993.30
2019-01-22T08:34:27.275Z,993.29
2019-01-22T08:35:27.300Z,993.31
2019-01-22T08:36:27.321Z,993.30
2019-01-22T08:37:27.346Z,993.27
2019-01-22T08:38:27.371Z,993.27
2019-01-22T08:39:27.399Z,993.23
2019-01-22T08:40:27.416Z,993.27
2019-01-22T08:41:27.440Z,993.22
2019-01-22T08:42:27.464Z,993.17
2019-01-22T08:43:27.488Z,993.18
2019-01-22T08:44:28.089Z,993.18
2019-01-22T08:45:27.533Z,993.16
2019-01-22T08:46:27.558Z,993.18
2019-01-22T08:47:27.581Z,993.13
2019-01-22T08:48:27.756Z,993.14
2019-01-22T08:49:27.632Z,993.15
2019-01-22T08:50:27.652Z,993.17
2019-01-22T08:51:27.677Z,993.17
2019-01-22T08:52:27.700Z,993.12
2019-01-22T08:53:27.730Z,993.12
2019-01-22T08:54:27.745Z,993.03
2019-01-22T08:55:27.769Z,993.02
2019-01-22T08:56:27.793Z,993.09
2019-01-22T08:57:27.817Z,993.05
2019-01-22T08:58:27.842Z,993.08
2019-01-22T08:59:27.864Z,993.06
2019-01-22T09:00:28.035Z,993.01
2019-01-22T09:01:27.913Z,992.99
2019-01-22T09:02:27.937Z,992.95
2019-01-22T09:03:27.960Z,992.98
2019-01-22T09:04:27.981Z,992.96
2019-01-22T09:05:28.006Z,992.93
2019-01-22T09:06:28.030Z,992.95
2019-01-22T09:07:28.054Z,992.97
2019-01-22T09:08:28.077Z,992.96
2019-01-22T09:09:28.101Z,992.95
2019-01-22T09:10:28.126Z,992.95
2019-01-22T09:11:28.148Z,992.92
2019-01-22T09:12:28.174Z,992.92
2019-01-22T09:13:28.197Z,992.88
2019-01-22T09:14:28.222Z,992.87
2019-01-22T09:15:28.245Z,992.91
2019-01-22T09:16:28.268Z,992.88
2019-01-22T09:17:28.293Z,992.83
2019-01-22T09:18:28.321Z,992.86
2019-01-22T09:19:28.343Z,992.89
2019-01-22T09:20:28.408Z,992.88
2019-01-22T09:21:28.389Z,992.89
2019-01-22T09:22:28.413Z,992.89
2019-01-22T09:23:28.436Z,992.80
2019-01-22T09:24:28.461Z,992.80
2019-01-22T09:25:28.486Z,992.80
2019-01-22T09:26:28.523Z,992.76
2019-01-22T09:27:28.531Z,992.78
2019-01-22T09:28:28.557Z,992.81
2019-01-22T09:29:28.582Z,992.80
2019-01-22T09:30:28.606Z,992.81
2019-01-22T09:31:28.626Z,992.77
2019-01-22T09:32:28.652Z,992.70
2019-01-22T09:33:28.675Z,992.74
2019-01-22T09:34:28.700Z,992.73
2019-01-22T09:35:28.724Z,992.66
2019-01-22T09:36:28.747Z,992.66
2019-01-22T09:37:28.772Z,992.66
2019-01-22T09:38:28.795Z,992.62
2019-01-22T09:39:28.819Z,992.65
2019-01-22T09:40:28.843Z,992.62
2019-01-22T09:41:28.868Z,992.62
2019-01-22T09:42:28.893Z,992.62
2019-01-22T09:43:28.915Z,992.64
2019-01-22T09:44:28.938Z,992.62
2019-01-22T09:45:28.963Z,992.61
2019-01-22T09:46:28.988Z,992.57
2019-01-22T09:47:29.012Z,992.57
2019-01-22T09:48:29.042Z,992.57
2019-01-22T09:49:29.060Z,992.54
2019-01-22T09:50:29.086Z,992.56
2019-01-22T09:51:29.117Z,992.56
2019-01-22T09:52:29.133Z,992.50
2019-01-22T09:53:29.166Z,992.57
2019-01-22T09:54:29.182Z,992.56
2019-01-22T09:55:30.451Z,992.55
2019-01-22T09:56:29.229Z,992.52
2019-01-22T09:57:29.253Z,992.48
2019-01-22T09:58:29.293Z,992.49
2019-01-22T09:59:29.301Z,992.49
2019-01-22T10:00:30.313Z,992.50
2019-01-22T10:01:29.350Z,992.49
2019-01-22T10:02:29.373Z,992.51
2019-01-22T10:03:29.398Z,992.45
2019-01-22T10:04:29.423Z,992.48
2019-01-22T10:05:29.447Z,992.48
2019-01-22T10:06:29.472Z,992.47
2019-01-22T10:07:29.497Z,992.45
2019-01-22T10:08:29.519Z,992.46
2019-01-22T10:09:29.577Z,992.42
2019-01-22T10:10:29.570Z,992.42
2019-01-22T10:11:29.593Z,992.41
2019-01-22T10:12:29.616Z,992.42
2019-01-22T10:13:29.640Z,992.37
2019-01-22T10:14:29.682Z,992.37
2019-01-22T10:15:29.688Z,992.30
2019-01-22T10:16:29.714Z,992.31
2019-01-22T10:17:29.737Z,992.35
2019-01-22T10:18:29.765Z,992.28
2019-01-22T10:19:29.785Z,992.23
2019-01-22T10:20:29.810Z,992.24
2019-01-22T10:21:29.834Z,992.24
2019-01-22T10:22:29.859Z,992.21
2019-01-22T10:23:29.885Z,992.21
2019-01-22T10:24:29.906Z,992.19
2019-01-22T10:25:29.932Z,992.19
2019-01-22T10:26:29.956Z,992.17
2019-01-22T10:27:29.980Z,992.14
2019-01-22T10:28:30.006Z,992.12
2019-01-22T10:29:30.030Z,992.12
2019-01-22T10:30:30.055Z,992.08
2019-01-22T10:31:30.077Z,992.05
2019-01-22T10:32:30.101Z,992.06
2019-01-22T10:33:30.128Z,992.05
2019-01-22T10:34:30.154Z,991.96
2019-01-22T10:35:30.178Z,991.92
2019-01-22T10:36:30.228Z,991.95
2019-01-22T10:37:30.225Z,991.93
2019-01-22T10:38:30.250Z,991.84
2019-01-22T10:39:30.272Z,991.88
2019-01-22T10:40:30.298Z,991.85
2019-01-22T10:41:30.324Z,991.80
2019-01-22T10:42:30.351Z,991.79
2019-01-22T10:43:30.370Z,991.78
2019-01-22T10:44:30.397Z,991.80
2019-01-22T10:45:30.689Z,991.80
2019-01-22T10:46:30.444Z,991.77
2019-01-22T10:47:30.468Z,991.78
2019-01-22T10:48:30.495Z,991.70
2019-01-22T10:49:30.518Z,991.70
2019-01-22T10:50:30.558Z,991.68
2019-01-22T10:51:30.566Z,991.69
2019-01-22T10:52:30.646Z,991.70
2019-01-22T10:53:30.616Z,991.71
2019-01-22T10:54:30.642Z,991.69
2019-01-22T10:55:36.188Z,991.61
2019-01-22T10:56:30.688Z,991.63
2019-01-22T10:57:30.713Z,991.61
2019-01-22T10:58:30.737Z,991.62
2019-01-22T10:59:30.761Z,991.60
2019-01-22T11:00:30.786Z,991.62
2019-01-22T11:01:30.811Z,991.59
2019-01-22T11:02:30.837Z,991.57
2019-01-22T11:03:30.860Z,991.58
2019-01-22T11:04:30.883Z,991.55
2019-01-22T11:05:30.909Z,991.52
2019-01-22T11:06:30.937Z,991.49
2019-01-22T11:07:30.957Z,991.49
2019-01-22T11:08:30.982Z,991.49
2019-01-22T11:09:31.008Z,991.52
2019-01-22T11:10:31.033Z,991.44
2019-01-22T11:11:31.058Z,991.48
2019-01-22T11:12:31.081Z,991.40
2019-01-22T11:13:31.105Z,991.36
2019-01-22T11:14:31.132Z,991.37
2019-01-22T11:15:31.160Z,991.30
2019-01-22T11:16:31.186Z,991.30
2019-01-22T11:17:31.206Z,991.25
2019-01-22T11:18:31.231Z,991.25
2019-01-22T11:19:31.253Z,991.23
2019-01-22T11:20:31.279Z,991.15
2019-01-22T11:21:31.304Z,991.18
2019-01-22T11:22:31.329Z,991.09
2019-01-22T11:23:31.356Z,991.10
2019-01-22T11:24:31.379Z,991.06
2019-01-22T11:25:31.403Z,990.98
2019-01-22T11:26:31.428Z,991.02
2019-01-22T11:27:31.452Z,991.02
2019-01-22T11:28:31.479Z,991.00
2019-01-22T11:29:31.502Z,990.97
2019-01-22T11:30:31.529Z,990.96
2019-01-22T11:31:31.554Z,990.91
2019-01-22T11:32:31.577Z,990.87
2019-01-22T11:33:33.432Z,990.86
2019-01-22T11:34:31.628Z,990.83
2019-01-22T11:35:31.652Z,990.82
2019-01-22T11:36:31.677Z,990.79
2019-01-22T11:37:31.702Z,990.75
2019-01-22T11:38:31.728Z,990.73
2019-01-22T11:39:31.751Z,990.64
2019-01-22T11:40:31.776Z,990.71
2019-01-22T11:41:31.803Z,990.69
2019-01-22T11:42:31.828Z,990.71
2019-01-22T11:43:31.851Z,990.62
2019-01-22T11:44:31.876Z,990.64
2019-01-22T11:45:31.901Z,990.57
2019-01-22T11:46:31.927Z,990.62
2019-01-22T11:47:31.952Z,990.57
2019-01-22T11:48:31.976Z,990.57
2019-01-22T11:49:32.002Z,990.54
2019-01-22T11:50:32.027Z,990.52
2019-01-22T11:51:32.050Z,990.42
2019-01-22T11:52:32.075Z,990.39
2019-01-22T11:53:32.101Z,990.35
2019-01-22T11:54:32.128Z,990.31
2019-01-22T11:55:32.150Z,990.29
2019-01-22T11:56:32.175Z,990.23
2019-01-22T11:57:32.201Z,990.23
2019-01-22T11:58:32.229Z,990.28
2019-01-22T11:59:32.250Z,990.24
2019-01-22T12:00:32.277Z,990.20
2019-01-22T12:01:32.300Z,990.14
2019-01-22T12:02:32.362Z,990.08
2019-01-22T12:03:32.350Z,990.08
2019-01-22T12:04:32.374Z,990.09
2019-01-22T12:05:32.401Z,990.06
2019-01-22T12:06:32.425Z,990.08
2019-01-22T12:07:32.451Z,990.02
2019-01-22T12:08:32.474Z,989.99
2019-01-22T12:09:32.500Z,990.02
2019-01-22T12:10:32.525Z,989.94
2019-01-22T12:11:32.550Z,989.97
2019-01-22T12:12:32.574Z,989.91
2019-01-22T12:13:32.601Z,989.85
2019-01-22T12:14:32.626Z,989.84
2019-01-22T12:15:32.650Z,989.83
2019-01-22T12:16:32.675Z,989.75
2019-01-22T12:17:32.699Z,989.72
2019-01-22T12:18:32.739Z,989.70
2019-01-22T12:19:32.750Z,989.69
2019-01-22T12:20:32.777Z,989.67
2019-01-22T12:21:32.801Z,989.67
2019-01-22T12:22:32.827Z,989.60
2019-01-22T12:23:32.852Z,989.60
2019-01-22T12:24:32.877Z,989.58
2019-01-22T12:25:32.902Z,989.60
2019-01-22T12:26:32.926Z,989.51
2019-01-22T12:27:32.951Z,989.50
2019-01-22T12:28:32.977Z,989.46